Time;durP1;ratioP1;P1;durP2;ratioP2;P2;SDS_P1;SDS_P2;PMS_P1;PMS_P2;Temp;Humidity;BMP_temperature;BMP_pressure;BME280_temperature;BME280_humidity;BME280_pressure;Samples;Min_cycle;Max_cycle;Signal;HPM_P1;HPM_P2
2021/05/17 00:01:21;;;;;;;12.25;7.37;;;;;;;17.84;54.44;99339.60;1666214;83;20969;-89
2021/05/17 00:03:50;;;;;;;7.78;6.97;;;;;;;17.78;54.59;99333.37;1678628;84;21657;-91
2021/05/17 00:06:20;;;;;;;7.78;6.33;;;;;;;17.77;55.02;99326.89;1667356;86;21099;-92
2021/05/17 00:08:49;;;;;;;7.33;6.50;;;;;;;17.74;55.06;99326.05;1666908;86;21056;-92
2021/05/17 00:11:17;;;;;;;7.55;6.00;;;;;;;17.69;55.21;99316.86;1661097;85;21486;-91
2021/05/17 00:13:43;;;;;;;6.55;5.95;;;;;;;17.68;55.17;99316.58;1654888;86;21630;-92
2021/05/17 00:16:10;;;;;;;6.92;6.33;;;;;;;17.67;55.29;99314.16;1659729;86;21210;-92
2021/05/17 00:18:39;;;;;;;6.75;5.92;;;;;;;17.62;55.38;99313.58;1638627;87;21136;-93
2021/05/17 00:21:06;;;;;;;2.87;2.52;;;;;;;17.62;55.38;99313.58;1654277;86;21180;-92
2021/05/17 00:23:33;;;;;;;9.88;5.70;;;;;;;17.59;54.33;99318.67;1658252;85;21057;-92
2021/05/17 00:25:59;;;;;;;;;;;;;;;17.60;55.00;99304.95;1683133;85;21670;-94
2021/05/17 00:28:27;;;;;;;6.28;5.78;;;;;;;17.58;54.95;99311.67;1682843;84;20194;-91
2021/05/17 00:30:54;;;;;;;8.83;6.15;;;;;;;17.49;55.29;99312.14;1679412;85;21129;-91
2021/05/17 00:33:21;;;;;;;6.35;5.85;;;;;;;17.46;55.52;99303.25;1679720;84;21078;-92
2021/05/17 00:35:52;;;;;;;7.80;6.75;;;;;;;17.44;55.72;99304.56;1683249;84;21172;-92
2021/05/17 00:38:18;;;;;;;7.50;5.25;;;;;;;17.44;56.13;99304.56;1680659;85;21138;-93
2021/05/17 00:40:47;;;;;;;6.80;6.15;;;;;;;17.41;56.16;99302.41;1685065;84;21054;-92
2021/05/17 00:43:16;;;;;;;8.05;5.83;;;;;;;17.40;56.42;99302.11;1688066;84;21042;-94
2021/05/17 00:45:43;;;;;;;6.22;5.72;;;;;;;17.40;56.22;99292.68;1679641;85;21057;-93
2021/05/17 00:48:12;;;;;;;6.05;5.42;;;;;;;17.40;56.22;99292.68;1677723;85;21049;-92
2021/05/17 00:50:40;;;;;;;8.08;5.28;;;;;;;17.41;56.14;99288.94;1655737;85;21136;-93
2021/05/17 00:53:07;;;;;;;6.37;5.78;;;;;;;17.42;55.93;99288.68;1670770;84;21160;-93
2021/05/17 00:55:34;;;;;;;5.22;4.83;;;;;;;17.44;55.93;99283.01;1675839;84;21060;-92
2021/05/17 00:58:01;;;;;;;5.25;4.72;;;;;;;17.44;55.93;99283.01;1679002;85;22274;-92
2021/05/17 01:00:31;;;;;;;5.95;4.58;;;;;;;17.46;55.97;99281.70;1682861;84;21068;-92
2021/05/17 01:02:59;;;;;;;5.62;5.12;;;;;;;17.47;55.99;99279.27;1681611;85;21113;-92
2021/05/17 01:05:27;;;;;;;8.60;5.53;;;;;;;17.45;55.93;99281.41;1643833;86;21235;-92
2021/05/17 01:07:56;;;;;;;5.70;5.20;;;;;;;17.45;55.85;99278.71;1683098;85;21685;-91
2021/05/17 01:10:28;;;;;;;5.45;4.25;;;;;;;17.45;55.69;99284.64;1682847;84;21832;-92
2021/05/17 01:12:54;;;;;;;5.60;4.40;;;;;;;17.45;55.69;99284.64;1683496;85;21086;-92
2021/05/17 01:15:22;;;;;;;5.00;4.50;;;;;;;17.44;55.99;99289.23;1683513;84;21581;-91
2021/05/17 01:17:48;;;;;;;8.00;5.28;;;;;;;17.44;56.13;99289.74;1683724;84;21124;-92
2021/05/17 01:20:19;;;;;;;5.78;5.00;;;;;;;17.44;56.13;99289.74;1667385;82;21172;-91
2021/05/17 01:22:55;;;;;;;6.58;4.58;;;;;;;17.44;56.23;99287.05;1681837;85;21093;-92
2021/05/17 01:25:24;;;;;;;7.17;4.62;;;;;;;17.40;56.43;99282.71;1683031;84;21118;-92
2021/05/17 01:27:52;;;;;;;9.60;5.33;;;;;;;17.37;56.44;99279.75;1677854;84;21074;-94
2021/05/17 01:30:21;;;;;;;5.80;5.30;;;;;;;17.34;56.20;99275.67;1682841;85;21138;-94
2021/05/17 01:32:52;;;;;;;5.03;4.62;;;;;;;17.36;56.48;99276.77;1680153;83;21046;-93
2021/05/17 01:35:20;;;;;;;5.65;5.12;;;;;;;17.34;56.79;99285.64;1676659;85;21634;-94
2021/05/17 01:37:49;;;;;;;7.10;4.92;;;;;;;17.28;56.63;99282.91;1647859;87;21168;-94
2021/05/17 01:40:19;;;;;;;5.15;4.37;;;;;;;17.28;56.63;99282.91;1639047;86;21072;-93
2021/05/17 01:42:47;;;;;;;4.90;4.50;;;;;;;17.30;56.58;99288.84;1623965;86;21590;-93
2021/05/17 01:45:15;;;;;;;4.53;3.95;;;;;;;17.27;57.30;99286.69;1614293;86;21614;-93
2021/05/17 01:47:46;;;;;;;6.10;4.95;;;;;;;17.22;57.02;99279.91;1684393;83;21173;-91
2021/05/17 01:50:16;;;;;;;5.37;4.47;;;;;;;17.22;57.02;99279.91;1678882;83;21153;-92
2021/05/17 01:52:43;;;;;;;5.03;4.53;;;;;;;17.20;56.85;99286.63;1681094;83;21137;-92
2021/05/17 01:55:12;;;;;;;4.87;4.47;;;;;;;17.20;56.85;99286.63;1630842;86;21087;-92
2021/05/17 01:57:39;;;;;;;3.70;3.40;;;;;;;17.21;57.35;99286.34;1711429;83;21736;-91
2021/05/17 02:00:12;;;;;;;5.25;4.75;;;;;;;17.26;58.61;99291.78;1683892;85;21106;-92
2021/05/17 02:02:41;;;;;;;3.58;3.37;;;;;;;17.31;59.17;99293.17;1714892;83;21170;-92
2021/05/17 02:05:10;;;;;;;5.40;3.75;;;;;;;17.27;59.64;99286.69;1675598;85;21133;-92
2021/05/17 02:07:37;;;;;;;4.08;3.60;;;;;;;17.20;59.58;99281.24;1682898;85;21080;-92
2021/05/17 02:10:06;;;;;;;7.42;4.70;;;;;;;17.09;60.35;99282.49;1721736;83;21123;-90
2021/05/17 02:12:34;;;;;;;5.05;4.35;;;;;;;16.98;60.41;99271.36;1695746;83;21004;-91
2021/05/17 02:15:16;;;;;;;6.40;5.08;;;;;;;16.92;60.48;99261.63;1718943;83;21032;-89
2021/05/17 02:17:45;;;;;;;7.47;4.47;;;;;;;16.84;61.93;99283.61;1696976;83;21087;-91
2021/05/17 02:20:16;;;;;;;6.55;4.53;;;;;;;16.79;62.06;99286.24;1696638;84;21067;-91
2021/05/17 02:22:45;;;;;;;7.22;4.90;;;;;;;16.80;63.61;99286.50;1676025;85;21049;-92
2021/05/17 02:25:20;;;;;;;4.58;4.17;;;;;;;16.76;64.14;99288.89;1681326;84;21051;-92
2021/05/17 02:27:47;;;;;;;5.35;4.78;;;;;;;16.70;64.55;99274.58;1682075;82;21084;-91
2021/05/17 02:30:16;;;;;;;5.92;5.45;;;;;;;16.66;64.81;99261.90;1692502;83;21181;-93
2021/05/17 02:32:43;;;;;;;6.28;4.62;;;;;;;16.64;65.84;99272.11;1666079;85;21174;-93
2021/05/17 02:35:13;;;;;;;5.65;4.70;;;;;;;16.62;65.87;99290.38;1691091;84;21146;-91
2021/05/17 02:37:39;;;;;;;4.92;4.62;;;;;;;16.62;65.87;99290.38;1633813;87;21100;-93
2021/05/17 02:40:08;;;;;;;4.22;3.90;;;;;;;16.62;65.93;99285.00;1647911;86;21928;-93
2021/05/17 02:42:41;;;;;;;7.10;5.25;;;;;;;16.58;65.78;99273.94;1721615;83;21072;-93
2021/05/17 02:45:09;;;;;;;5.53;5.03;;;;;;;16.57;66.79;99274.98;1705580;83;21075;-91
2021/05/17 02:47:39;;;;;;;7.03;5.70;;;;;;;16.58;67.05;99274.48;1707630;83;21071;-90
2021/05/17 02:50:10;;;;;;;7.00;5.17;;;;;;;16.59;67.17;99287.64;1693209;83;21243;-91
2021/05/17 02:52:39;;;;;;;4.03;3.72;;;;;;;16.59;66.83;99309.71;1715742;83;21127;-91
2021/05/17 02:55:10;;;;;;;4.78;4.40;;;;;;;16.58;65.54;99308.10;1702003;83;21036;-88
2021/05/17 02:57:49;;;;;;;4.55;3.75;;;;;;;16.59;65.01;99295.72;1721293;83;21638;-91
2021/05/17 03:00:23;;;;;;;5.58;3.47;;;;;;;16.62;64.09;99292.53;1685150;85;21769;-92
2021/05/17 03:03:22;;;;;;;4.95;4.53;;;;;;;16.66;63.71;99282.88;1715563;83;21127;-90
2021/05/17 03:06:06;;;;;;;6.53;4.40;;;;;;;16.68;63.37;99267.84;1716453;83;21330;-90
2021/05/17 03:08:53;;;;;;;9.93;4.97;;;;;;;16.73;65.19;99269.23;1708811;83;21618;-91
2021/05/17 03:11:22;;;;;;;8.95;4.40;;;;;;;16.72;65.91;99276.47;1683912;83;21626;-91
2021/05/17 03:13:52;;;;;;;5.40;5.00;;;;;;;16.68;65.81;99274.56;1721518;83;21278;-90
2021/05/17 03:16:21;;;;;;;6.05;5.37;;;;;;;16.63;65.95;99274.00;1649626;85;21072;-91
2021/05/17 03:18:50;;;;;;;5.58;5.10;;;;;;;16.54;66.72;99268.25;1699745;84;21141;-91
2021/05/17 03:21:20;;;;;;;7.58;5.60;;;;;;;16.43;67.00;99264.37;1660250;85;21239;-91
2021/05/17 03:23:50;;;;;;;7.00;5.90;;;;;;;16.32;67.62;99256.72;1694548;83;21077;-92
2021/05/17 03:26:19;;;;;;;6.55;5.10;;;;;;;16.24;67.66;99257.17;1671842;84;21052;-92
2021/05/17 03:28:46;;;;;;;17.07;7.17;;;;;;;16.19;67.59;99243.12;1682222;85;21176;-91
2021/05/17 03:31:13;;;;;;;7.05;5.30;;;;;;;16.12;68.58;99226.38;1704356;84;21060;-93
2021/05/17 03:33:39;;;;;;;4.70;4.30;;;;;;;16.03;69.47;99217.13;1717771;81;21029;-92
2021/05/17 03:36:06;;;;;;;;;;;;;;;15.92;71.04;99217.02;1704177;84;21217;-92
2021/05/17 03:38:32;;;;;;;6.42;4.92;;;;;;;15.78;72.06;99202.88;1682499;85;20223;-91
2021/05/17 03:40:59;;;;;;;6.12;4.97;;;;;;;15.57;72.97;99199.89;1712950;84;21064;-92
2021/05/17 03:43:25;;;;;;;9.38;5.22;;;;;;;15.48;72.61;99193.33;1703226;83;21584;-93
2021/05/17 03:45:52;;;;;;;5.22;4.78;;;;;;;15.40;73.47;99174.43;1725357;83;21146;-93
2021/05/17 03:48:19;;;;;;;5.33;4.58;;;;;;;15.29;73.71;99157.37;1733330;83;21620;-92
2021/05/17 03:50:47;;;;;;;4.03;3.70;;;;;;;15.18;73.33;99134.13;1690482;82;21161;-93
2021/05/17 03:53:13;;;;;;;4.37;3.98;;;;;;;15.16;73.07;99134.91;1682168;84;21187;-93
2021/05/17 03:55:40;;;;;;;5.65;5.15;;;;;;;15.16;74.07;99138.94;1687997;84;21038;-92
2021/05/17 03:58:07;;;;;;;5.50;4.50;;;;;;;15.04;74.34;99143.08;1694990;84;21105;-92
2021/05/17 04:00:35;;;;;;;8.03;5.10;;;;;;;15.02;75.08;99151.10;1678699;84;21601;-92
2021/05/17 04:03:05;;;;;;;;;;;;;;;15.03;75.04;99154.05;1687635;84;21125;-93
2021/05/17 04:05:47;;;;;;;4.90;4.50;;;;;;;15.04;74.83;99155.69;1709373;83;20597;-93
2021/05/17 04:13:33;;;;;;;6.67;6.17;;;;;;;15.07;76.02;99151.15;1659451;86;21028;-93
2021/05/17 04:16:00;;;;;;;13.95;5.53;;;;;;;15.07;75.96;99135.05;1673372;86;21583;-92
2021/05/17 04:18:26;;;;;;;5.62;5.05;;;;;;;15.14;76.00;99128.98;1669386;84;21723;-92
2021/05/17 04:20:54;;;;;;;7.83;4.90;;;;;;;15.27;75.37;99123.25;1672267;86;21658;-93
2021/05/17 04:23:26;;;;;;;5.08;4.75;;;;;;;15.38;75.43;99118.30;1661369;85;21166;-92
2021/05/17 04:25:53;;;;;;;4.60;4.30;;;;;;;15.45;75.07;99114.63;1670867;86;21103;-92
2021/05/17 04:28:20;;;;;;;4.72;4.33;;;;;;;15.45;74.85;99113.28;1672131;86;21621;-92
2021/05/17 04:32:19;;;;;;;5.90;3.70;;;;;;;15.53;74.19;99118.20;1856379;76;23075;-92
2021/05/17 04:34:45;;;;;;;5.70;4.05;;;;;;;15.59;73.87;99114.51;1753769;78;21058;-93
2021/05/17 04:37:11;;;;;;;4.62;4.17;;;;;;;15.67;74.54;99116.77;1766038;80;21035;-92
2021/05/17 04:39:38;;;;;;;5.78;4.35;;;;;;;15.73;74.63;99138.63;1739811;80;21720;-93
2021/05/17 04:42:05;;;;;;;4.53;4.12;;;;;;;15.80;74.50;99138.95;1745483;80;21198;-93
2021/05/17 04:44:32;;;;;;;4.40;4.00;;;;;;;15.81;73.41;99144.08;1715510;81;21039;-93
2021/05/17 04:47:00;;;;;;;4.20;3.80;;;;;;;15.82;73.71;99148.91;1744086;80;21085;-93
2021/05/17 04:49:26;;;;;;;5.80;4.03;;;;;;;15.83;73.52;99151.89;1748789;82;21154;-94
2021/05/17 04:51:52;;;;;;;4.80;4.40;;;;;;;15.91;73.37;99152.78;1748676;81;21100;-93
2021/05/17 04:54:19;;;;;;;4.62;4.33;;;;;;;15.94;73.73;99151.74;1740399;80;21012;-93
2021/05/17 04:56:45;;;;;;;;;;;;;;;15.93;74.30;99153.33;1744498;80;21079;-93
2021/05/17 04:59:12;;;;;;;3.80;3.52;;;;;;;15.98;74.42;99150.71;1745908;81;20165;-94
2021/05/17 05:01:38;;;;;;;3.87;3.62;;;;;;;16.03;74.16;99149.42;1741466;80;21065;-93
2021/05/17 05:04:05;;;;;;;4.17;3.65;;;;;;;16.10;74.22;99147.86;1746241;80;20985;-95
2021/05/17 05:06:31;;;;;;;4.03;3.77;;;;;;;16.12;73.77;99143.05;1728311;81;21109;-93
2021/05/17 05:08:57;;;;;;;5.97;3.77;;;;;;;16.12;73.60;99137.16;1747262;80;21334;-92
2021/05/17 05:11:24;;;;;;;3.87;3.58;;;;;;;16.17;73.30;99143.64;1731801;80;21064;-93
2021/05/17 05:13:51;;;;;;;4.00;3.42;;;;;;;16.24;73.33;99141.56;1736084;80;21113;-93
2021/05/17 05:16:18;;;;;;;4.97;4.50;;;;;;;16.22;73.27;99136.95;1758921;80;21095;-94
2021/05/17 05:18:45;;;;;;;6.00;5.55;;;;;;;16.15;73.27;99134.48;1748640;81;21409;-94
2021/05/17 05:21:12;;;;;;;4.28;3.98;;;;;;;16.06;73.46;99131.43;1753144;80;21052;-94
2021/05/17 05:23:38;;;;;;;8.45;4.72;;;;;;;16.00;73.33;99123.59;1733211;80;21083;-93
2021/05/17 05:26:40;;;;;;;4.20;3.90;;;;;;;15.95;73.16;99121.13;1746378;80;21151;-95
2021/05/17 05:33:40;;;;;;;4.08;3.75;;;;;;;15.65;73.64;99118.90;1714926;81;21121;-93
2021/05/17 05:36:07;;;;;;;3.90;3.25;;;;;;;15.68;74.02;99105.48;1764756;80;21115;-92
2021/05/17 05:38:34;;;;;;;3.60;3.35;;;;;;;15.69;73.69;99098.52;1749539;80;21693;-95
2021/05/17 05:41:01;;;;;;;7.15;4.17;;;;;;;15.63;74.11;99095.48;1754770;80;21034;-92
2021/05/17 05:43:29;;;;;;;5.08;4.00;;;;;;;15.61;73.99;99075.32;1732714;80;21160;-93
2021/05/17 05:45:55;;;;;;;4.30;3.35;;;;;;;15.66;74.01;99067.33;1735257;80;21023;-93
2021/05/17 05:48:21;;;;;;;3.17;2.98;;;;;;;15.70;74.08;99061.18;1727446;80;21048;-93
2021/05/17 05:50:48;;;;;;;4.22;3.87;;;;;;;15.74;74.05;99051.58;1758460;80;21174;-91
2021/05/17 05:53:15;;;;;;;4.47;3.42;;;;;;;15.73;74.26;99053.16;1753784;80;21081;-93
2021/05/17 05:55:44;;;;;;;3.67;3.25;;;;;;;15.80;74.47;99044.92;1746172;80;21063;-94
2021/05/17 05:58:10;;;;;;;3.25;3.05;;;;;;;15.93;74.41;99033.75;1731740;80;21312;-93
2021/05/17 06:00:37;;;;;;;3.10;2.90;;;;;;;16.05;74.53;99028.20;1741484;81;21043;-93
2021/05/17 06:03:05;;;;;;;;;;;;;;;16.15;74.67;99029.64;1747027;80;21051;-93
2021/05/17 06:05:33;;;;;;;3.72;3.45;;;;;;;16.20;74.41;99027.00;1734868;81;20126;-91
2021/05/17 06:08:01;;;;;;;3.15;2.95;;;;;;;16.20;74.54;99024.83;1738793;80;20974;-94
2021/05/17 06:10:30;;;;;;;2.77;2.58;;;;;;;16.29;74.52;99021.43;1758468;80;21571;-94
2021/05/17 06:12:58;;;;;;;3.22;2.83;;;;;;;16.44;74.23;99017.20;1743900;80;21110;-93
2021/05/17 06:15:25;;;;;;;4.55;3.00;;;;;;;16.50;74.17;99019.69;1718533;82;21066;-93
2021/05/17 06:17:53;;;;;;;3.35;3.05;;;;;;;16.53;74.21;99015.66;1724636;81;21237;-94
2021/05/17 06:20:23;;;;;;;3.17;3.02;;;;;;;16.53;74.53;99003.00;1717266;80;21157;-94
2021/05/17 06:22:50;;;;;;;3.87;2.80;;;;;;;16.51;73.90;98995.73;1677961;80;21616;-94
2021/05/17 06:25:18;;;;;;;4.85;2.67;;;;;;;16.52;73.94;99000.06;1737726;80;21031;-93
2021/05/17 06:27:45;;;;;;;3.30;2.15;;;;;;;16.59;73.86;99001.70;1703791;81;22170;-93
2021/05/17 06:30:17;;;;;;;;;;;;;;;16.60;74.38;98997.95;1729762;80;21099;-94
2021/05/17 06:32:45;;;;;;;3.22;2.92;;;;;;;16.63;74.05;98987.48;1720959;81;20146;-93
2021/05/17 06:35:13;;;;;;;3.12;2.83;;;;;;;16.58;74.74;98972.66;1730078;80;21095;-93
2021/05/17 06:37:46;;;;;;;3.27;3.07;;;;;;;16.60;74.42;98972.40;1730091;81;21146;-91
2021/05/17 06:40:13;;;;;;;;;;;;;;;16.66;74.60;98967.31;1730217;81;21140;-92
2021/05/17 06:42:41;;;;;;;3.87;3.58;;;;;;;16.74;74.47;98962.77;1736287;81;20199;-93
2021/05/17 06:45:10;;;;;;;4.05;3.80;;;;;;;16.77;74.46;98972.21;1716266;81;21058;-93
2021/05/17 06:48:01;;;;;;;5.60;4.37;;;;;;;16.79;74.28;98993.73;1725637;82;21107;-93
2021/05/17 06:50:41;;;;;;;4.92;4.45;;;;;;;16.85;74.31;99014.24;1718152;82;21500;-94
2021/05/17 06:53:24;;;;;;;4.08;3.77;;;;;;;16.89;73.49;99019.37;1700915;81;21110;-93
2021/05/17 06:56:00;;;;;;;6.37;3.58;;;;;;;16.98;72.45;99031.00;1710108;82;21091;-93
2021/05/17 06:58:37;;;;;;;4.92;4.28;;;;;;;17.07;72.16;99035.61;1719371;82;21194;-92
2021/05/17 07:01:03;;;;;;;3.30;2.87;;;;;;;17.08;71.58;99045.33;1725076;80;21786;-93
2021/05/17 07:03:30;;;;;;;3.42;3.22;;;;;;;17.08;71.83;99056.61;1700275;82;21087;-93
2021/05/17 07:05:58;;;;;;;4.37;2.65;;;;;;;17.16;71.37;99055.29;1701136;82;21199;-93
2021/05/17 07:13:54;;;;;;;2.75;2.27;;;;;;;17.62;70.11;99034.70;1718998;82;21047;-92
2021/05/17 07:16:20;;;;;;;3.47;2.25;;;;;;;17.66;70.20;99037.12;1709958;82;21777;-90
2021/05/17 07:18:47;;;;;;;2.62;2.42;;;;;;;17.71;68.76;99015.59;1730673;82;21140;-92
2021/05/17 07:23:40;;;;;;;2.75;2.55;;;;;;;17.82;68.38;99027.20;1717687;82;21005;-92
2021/05/17 07:26:11;;;;;;;2.35;2.20;;;;;;;17.87;68.10;99029.11;1698550;82;21141;-92
2021/05/17 07:28:38;;;;;;;2.20;1.92;;;;;;;17.84;67.99;99025.59;1715980;82;21669;-92
2021/05/17 07:31:09;;;;;;;2.40;2.17;;;;;;;17.84;68.02;99025.59;1709176;82;21101;-90
2021/05/17 07:33:38;;;;;;;3.47;2.08;;;;;;;17.88;68.04;99027.50;1715066;81;21144;-91
2021/05/17 07:36:05;;;;;;;1.75;1.70;;;;;;;17.98;67.61;99021.30;1708332;84;21671;-91
2021/05/17 07:38:32;;;;;;;2.25;2.15;;;;;;;18.17;68.08;99014.82;1737028;81;21175;-93
2021/05/17 07:41:02;;;;;;;2.00;1.90;;;;;;;18.28;67.30;99019.67;1736902;81;21112;-91
2021/05/17 07:43:29;;;;;;;2.67;2.47;;;;;;;18.34;66.86;99014.53;1737970;81;21020;-92
2021/05/17 07:45:56;;;;;;;3.20;1.50;;;;;;;18.47;67.04;99006.42;1734269;81;21641;-92
2021/05/17 07:48:22;;;;;;;2.20;2.00;;;;;;;18.62;67.00;98994.80;1727003;81;21076;-90
2021/05/17 07:50:48;;;;;;;2.83;1.95;;;;;;;18.75;65.90;98978.57;1739969;81;21035;-91
2021/05/17 07:53:17;;;;;;;2.70;1.75;;;;;;;18.92;65.48;98991.77;1716267;82;21092;-89
2021/05/17 07:55:48;;;;;;;3.10;1.70;;;;;;;18.97;65.20;99041.16;1739889;81;21037;-94
2021/05/17 07:58:13;;;;;;;1.32;1.20;;;;;;;19.01;65.16;99050.87;1726553;81;21116;-93
2021/05/17 08:00:41;;;;;;;1.40;1.30;;;;;;;19.04;64.74;99046.25;1730953;81;21008;-94
2021/05/17 08:03:07;;;;;;;2.05;1.17;;;;;;;19.14;64.77;99042.17;1732316;81;21274;-93
2021/05/17 08:05:33;;;;;;;1.72;1.62;;;;;;;19.19;64.50;99052.97;1738002;81;21186;-94
2021/05/17 08:08:00;;;;;;;1.25;1.25;;;;;;;19.28;64.25;99034.27;1731347;82;21856;-93
2021/05/17 08:10:27;;;;;;;1.05;1.05;;;;;;;19.40;63.26;99029.88;1732260;81;21585;-92
2021/05/17 08:12:54;;;;;;;3.30;1.12;;;;;;;19.39;62.66;99036.38;1686984;81;21092;-93
2021/05/17 08:15:22;;;;;;;2.83;1.45;;;;;;;19.43;63.07;99046.89;1708745;82;21035;-94
2021/05/17 08:17:48;;;;;;;3.15;1.40;;;;;;;19.41;61.96;99055.83;1703399;82;21219;-94
2021/05/17 08:20:15;;;;;;;1.87;1.77;;;;;;;19.35;62.16;99054.24;1708546;82;21059;-94
2021/05/17 08:22:43;;;;;;;4.62;1.42;;;;;;;19.34;62.94;99043.95;1707564;82;21048;-94
2021/05/17 08:25:11;;;;;;;2.58;1.25;;;;;;;19.47;62.77;99039.05;1710137;82;21064;-93
2021/05/17 08:28:06;;;;;;;5.25;1.52;;;;;;;19.68;62.42;99042.43;1705984;82;21167;-93
2021/05/17 08:30:46;;;;;;;3.70;1.77;;;;;;;19.80;61.88;99049.70;1706506;82;21072;-91
2021/05/17 08:33:12;;;;;;;1.90;1.80;;;;;;;19.89;61.68;99039.07;1710599;82;21166;-93
2021/05/17 08:35:41;;;;;;;1.62;1.50;;;;;;;20.00;61.69;99040.09;1709206;82;21072;-91
2021/05/17 08:38:08;;;;;;;2.15;1.95;;;;;;;20.13;61.47;99049.98;1711689;82;21005;-92
2021/05/17 08:40:36;;;;;;;4.25;2.35;;;;;;;20.18;60.70;99045.89;1711584;82;21016;-91
2021/05/17 08:43:05;;;;;;;1.17;1.17;;;;;;;20.22;60.45;99055.05;1711533;82;21106;-89
2021/05/17 08:45:34;;;;;;;1.75;1.52;;;;;;;20.26;60.38;99063.41;1717404;81;21008;-90
2021/05/17 08:48:04;;;;;;;1.22;1.12;;;;;;;20.30;60.09;99059.84;1695979;82;21139;-91
2021/05/17 08:50:33;;;;;;;2.37;1.10;;;;;;;20.36;59.33;99062.79;1686658;82;21166;-89
2021/05/17 08:52:59;;;;;;;1.22;0.95;;;;;;;20.39;58.57;99079.79;1681575;84;21339;-92
2021/05/17 08:55:30;;;;;;;1.35;1.30;;;;;;;20.48;56.97;99082.70;1657356;85;21143;-92
2021/05/17 08:57:56;;;;;;;1.65;1.15;;;;;;;20.58;57.58;99079.09;1708438;82;21795;-90
2021/05/17 09:00:24;;;;;;;3.33;1.00;;;;;;;20.67;57.53;99077.41;1701316;82;21130;-91
2021/05/17 09:02:52;;;;;;;2.58;1.35;;;;;;;20.78;57.42;99075.41;1711064;82;21613;-91
2021/05/17 09:05:32;;;;;;;3.22;0.88;;;;;;;20.83;57.36;99073.98;1698989;83;21153;-92
2021/05/17 09:08:03;;;;;;;2.35;1.17;;;;;;;20.85;56.87;99069.12;1711201;82;21124;-90
2021/05/17 09:10:35;;;;;;;6.78;1.20;;;;;;;20.86;56.56;99070.72;1700822;82;21058;-91
2021/05/17 09:13:11;;;;;;;3.58;1.05;;;;;;;20.87;56.98;99078.28;1742126;81;20995;-92
2021/05/17 09:15:52;;;;;;;1.07;0.90;;;;;;;20.24;56.32;99001.46;1735089;81;22207;-91
2021/05/17 09:18:27;;;;;;;3.37;1.17;;;;;;;20.80;56.25;99107.88;1735396;80;20974;-91
2021/05/17 09:20:56;;;;;;;4.45;0.80;;;;;;;20.76;56.12;99110.90;1729074;81;21171;-91
2021/05/17 09:23:28;;;;;;;1.65;0.70;;;;;;;20.70;55.58;99105.80;1714216;80;21029;-91
2021/05/17 09:26:14;;;;;;;2.22;0.65;;;;;;;20.61;56.38;99105.63;1677538;84;21761;-93
2021/05/17 09:28:48;;;;;;;0.37;0.37;;;;;;;20.53;56.47;99104.84;1696460;84;21746;-90
2021/05/17 09:31:19;;;;;;;6.08;0.65;;;;;;;20.40;55.39;99109.03;1693831;83;21614;-92
2021/05/17 09:33:56;;;;;;;12.85;0.65;;;;;;;20.25;54.97;99114.02;1700000;80;21115;-91
2021/05/17 09:36:41;;;;;;;1.60;0.42;;;;;;;20.06;55.49;99114.41;1750329;80;21691;-91
2021/05/17 09:39:17;;;;;;;1.27;0.45;;;;;;;19.87;56.11;99122.37;1736627;80;21047;-91
2021/05/17 09:41:47;;;;;;;1.92;0.47;;;;;;;19.71;56.81;99127.03;1759710;80;21151;-92
2021/05/17 09:44:20;;;;;;;1.67;0.50;;;;;;;19.61;56.96;99137.36;1745375;80;21299;-92
2021/05/17 09:47:17;;;;;;;1.67;0.47;;;;;;;19.51;57.30;99163.86;1744601;80;21084;-92
2021/05/17 09:49:55;;;;;;;3.62;0.60;;;;;;;19.33;57.72;99180.14;1738791;82;21459;-93
2021/05/17 09:52:26;;;;;;;0.75;0.70;;;;;;;19.15;58.82;99202.33;1755363;80;21700;-93
2021/05/17 09:54:57;;;;;;;1.07;0.75;;;;;;;19.03;59.70;99203.42;1739725;80;21116;-91
2021/05/17 09:57:39;;;;;;;3.70;0.65;;;;;;;18.97;60.64;99206.41;1733962;80;21149;-92
2021/05/17 10:00:30;;;;;;;0.80;0.80;;;;;;;18.84;61.60;99199.66;1718527;82;21075;-93
2021/05/17 10:03:02;;;;;;;2.52;1.47;;;;;;;18.64;63.16;99180.19;1735002;81;21049;-94
2021/05/17 10:05:33;;;;;;;1.35;1.25;;;;;;;18.38;64.67;99156.43;1754966;82;21145;-93
2021/05/17 10:08:03;;;;;;;4.70;1.12;;;;;;;18.20;65.94;99145.09;1750477;80;21140;-94
2021/05/17 10:10:33;;;;;;;5.62;1.50;;;;;;;18.11;66.35;99127.02;1754993;80;21028;-93
2021/05/17 10:13:03;;;;;;;5.53;2.00;;;;;;;18.05;67.62;99084.41;1744596;80;21071;-94
2021/05/17 10:15:35;;;;;;;4.33;1.10;;;;;;;17.92;69.19;99041.25;1718964;82;21055;-93
2021/05/17 10:18:01;;;;;;;3.00;1.72;;;;;;;17.80;70.99;98999.70;1742952;82;21265;-93
2021/05/17 10:20:29;;;;;;;2.30;1.17;;;;;;;17.71;71.62;98974.37;1750673;81;21093;-94
2021/05/17 10:22:57;;;;;;;1.77;1.52;;;;;;;17.55;72.43;98925.03;1748180;80;21045;-93
2021/05/17 10:25:35;;;;;;;3.30;2.33;;;;;;;17.22;74.06;98896.74;1754308;81;21068;-92
2021/05/17 10:28:13;;;;;;;1.35;1.17;;;;;;;17.22;74.06;98896.74;1747271;82;21119;-92
2021/05/17 10:30:42;;;;;;;2.55;2.30;;;;;;;17.22;74.83;98921.78;1755329;82;21127;-93
2021/05/17 10:33:14;;;;;;;3.58;1.70;;;;;;;17.27;74.65;98877.36;1746933;81;21120;-92
2021/05/17 10:35:46;;;;;;;1.82;1.75;;;;;;;17.27;74.65;98877.36;1747167;80;21216;-93
2021/05/17 10:38:44;;;;;;;2.58;2.40;;;;;;;17.29;74.88;98883.28;1775794;80;21102;-93
2021/05/17 10:44:32;;;;;;;4.30;1.85;;;;;;;17.42;73.75;98930.95;1722033;81;21637;-91
2021/05/17 10:47:05;;;;;;;2.35;1.52;;;;;;;17.42;73.75;98930.95;1714455;82;21615;-92
2021/05/17 10:49:38;;;;;;;1.67;1.57;;;;;;;17.51;73.41;98941.47;1734414;81;21125;-93
2021/05/17 10:52:10;;;;;;;4.12;1.80;;;;;;;17.56;73.64;98937.44;1701002;82;21189;-92
2021/05/17 10:54:43;;;;;;;3.90;1.45;;;;;;;17.65;73.81;98930.45;1743844;80;21570;-93
2021/05/17 10:57:30;;;;;;;1.60;1.50;;;;;;;17.80;72.77;98928.80;1738462;80;21635;-92
2021/05/17 11:02:47;;;;;;;1.12;1.00;;;;;;;17.99;72.23;98914.27;1741389;82;21054;-91
2021/05/17 11:05:19;;;;;;;;;;;;;;;18.03;71.94;98912.66;1752354;80;21660;-92
2021/05/17 11:08:01;;;;;;;0.45;0.45;;;;;;;18.12;70.15;98911.55;1740663;80;20219;-93
2021/05/17 11:10:51;;;;;;;1.82;1.07;;;;;;;18.23;69.78;98910.45;1737439;82;21068;-92
2021/05/17 11:13:25;;;;;;;4.20;0.70;;;;;;;18.32;70.41;98909.36;1732045;82;21068;-92
2021/05/17 11:16:00;;;;;;;1.20;1.15;;;;;;;18.36;69.44;98924.70;1704551;79;21160;-92
2021/05/17 11:18:48;;;;;;;0.98;0.65;;;;;;;17.67;69.76;98799.50;1737492;80;21050;-92
2021/05/17 11:21:29;;;;;;;0.98;0.65;;;;;;;18.61;69.64;98921.14;1744744;79;21121;-92
2021/05/17 11:24:02;;;;;;;0.82;0.80;;;;;;;18.77;67.65;98923.77;1749875;79;21042;-94
2021/05/17 11:26:31;;;;;;;1.50;1.30;;;;;;;18.82;67.36;98932.68;1752761;79;21048;-92
2021/05/17 11:29:01;;;;;;;2.70;0.60;;;;;;;18.82;68.01;98940.78;1762958;79;21120;-93
2021/05/17 11:31:43;;;;;;;1.10;0.57;;;;;;;18.84;67.44;98948.05;1741897;80;21703;-92
2021/05/17 11:34:17;;;;;;;0.70;0.50;;;;;;;18.97;67.55;98943.16;1730703;80;21595;-92
2021/05/17 11:36:52;;;;;;;4.10;1.32;;;;;;;19.11;68.07;98944.14;1743402;80;22108;-93
2021/05/17 11:39:27;;;;;;;1.27;0.90;;;;;;;19.22;66.73;98947.05;1720260;81;21047;-92
2021/05/17 11:42:03;;;;;;;1.57;1.10;;;;;;;19.29;66.73;98941.87;1749586;80;21159;-90
2021/05/17 11:44:38;;;;;;;3.60;1.50;;;;;;;19.36;66.56;98954.52;1741317;80;21000;-90
2021/05/17 11:47:14;;;;;;;1.07;0.75;;;;;;;19.39;66.35;98960.18;1746356;80;21072;-91
2021/05/17 11:49:43;;;;;;;1.40;0.70;;;;;;;19.39;66.28;98960.73;1742753;80;21131;-91
2021/05/17 11:52:23;;;;;;;3.05;1.10;;;;;;;19.31;65.28;98957.25;1692169;82;21130;-90
2021/05/17 11:55:00;;;;;;;0.98;0.80;;;;;;;19.21;65.96;98967.58;1703372;83;21098;-92
2021/05/17 11:57:36;;;;;;;0.95;0.95;;;;;;;19.01;66.64;98973.91;1723525;81;21084;-91
2021/05/17 12:00:11;;;;;;;1.35;1.25;;;;;;;18.84;67.19;98969.66;1778133;79;21186;-92
2021/05/17 12:02:45;;;;;;;1.35;1.17;;;;;;;18.77;67.54;98971.00;1736644;81;21235;-91
2021/05/17 12:05:14;;;;;;;2.15;1.20;;;;;;;18.74;67.66;98969.67;1758574;81;21323;-92
2021/05/17 12:07:47;;;;;;;2.12;0.98;;;;;;;18.70;67.78;98973.18;1765251;80;21099;-92
2021/05/17 12:10:16;;;;;;;1.80;1.70;;;;;;;18.59;67.38;98985.38;1751398;81;21053;-91
2021/05/17 12:12:44;;;;;;;1.80;1.70;;;;;;;18.52;68.16;98985.39;1731186;79;21079;-91
2021/05/17 12:15:17;;;;;;;4.12;0.90;;;;;;;18.43;68.11;98994.57;1717440;83;21092;-90